CheckWX is a tool to help pilots better visualize weather data.  It is not intended as a substitute for an official pre-flight weather briefing.

04:27:52 UTC

KERV METAR
Kerrville Municipal / Louis Schreiner Field Airport
Kerrville, Texas, USA
Current

13 mins ago

KERV 270415Z AUTO 11005KT 10SM SCT021 BKN030 BKN045 23/21 A3017 RMK AO2 T02330210
Observed
Jun-27 @ 04:15 UTC
Wind
  • 110° at 5 KTS
Visibility
10 SM
Flight Rules
MVFR
Cloud Levels
  • Scattered at 2,100' AGL
  • Broken at 3,000' AGL
  • Broken at 4,500' AGL
Temperature
23°C / 73°F
Dewpoint
21°C / 70°F
Humidity
89%
Altimeter
30.17" Hg
Pressure
1021.72 hPa
Previous

33 mins ago

KERV 270355Z AUTO 15003KT 10SM SCT043 23/21 A3016 RMK AO2 T02330207
Observed
Jun-27 @ 03:55 UTC
Wind
  • 150° at 3 KTS
Visibility
10 SM
Flight Rules
VFR
Cloud Levels
  • Scattered at 4,300' AGL
Temperature
23°C / 73°F
Dewpoint
21°C / 70°F
Humidity
89%
Altimeter
30.16" Hg
Pressure
1021.32 hPa
Previous

53 mins ago

KERV 270335Z AUTO 13004KT 10SM SCT043 25/22 A3015 RMK AO2 T02470215
Observed
Jun-27 @ 03:35 UTC
Wind
  • 130° at 4 KTS
Visibility
10 SM
Flight Rules
VFR
Cloud Levels
  • Scattered at 4,300' AGL
Temperature
25°C / 77°F
Dewpoint
22°C / 72°F
Humidity
83%
Altimeter
30.15" Hg
Pressure
1021.02 hPa